sensor_id;sensor_type;location;lat;lon;timestamp;P1;durP1;ratioP1;P2;durP2;ratioP2
7398;SDS011;3740;50.700;7.184;2023-05-23T00:02:07;11.88;;;10.82;;
7398;SDS011;3740;50.700;7.184;2023-05-23T00:04:33;11.60;;;10.50;;
7398;SDS011;3740;50.700;7.184;2023-05-23T00:07:00;12.10;;;10.80;;
7398;SDS011;3740;50.700;7.184;2023-05-23T00:09:27;11.98;;;10.88;;
7398;SDS011;3740;50.700;7.184;2023-05-23T00:11:52;11.52;;;10.55;;
7398;SDS011;3740;50.700;7.184;2023-05-23T00:14:18;10.85;;;9.95;;
7398;SDS011;3740;50.700;7.184;2023-05-23T00:16:43;12.32;;;11.20;;
7398;SDS011;3740;50.700;7.184;2023-05-23T00:19:13;11.32;;;10.32;;
7398;SDS011;3740;50.700;7.184;2023-05-23T00:21:39;11.55;;;10.50;;
7398;SDS011;3740;50.700;7.184;2023-05-23T00:24:07;12.25;;;11.02;;
7398;SDS011;3740;50.700;7.184;2023-05-23T00:26:34;11.43;;;10.48;;
7398;SDS011;3740;50.700;7.184;2023-05-23T00:29:00;12.07;;;10.98;;
7398;SDS011;3740;50.700;7.184;2023-05-23T00:31:26;10.20;;;9.35;;
7398;SDS011;3740;50.700;7.184;2023-05-23T00:33:51;11.43;;;10.25;;
7398;SDS011;3740;50.700;7.184;2023-05-23T00:36:17;10.88;;;9.93;;
7398;SDS011;3740;50.700;7.184;2023-05-23T00:38:43;10.48;;;9.57;;
7398;SDS011;3740;50.700;7.184;2023-05-23T00:41:10;11.05;;;10.07;;
7398;SDS011;3740;50.700;7.184;2023-05-23T00:43:36;10.60;;;9.75;;
7398;SDS011;3740;50.700;7.184;2023-05-23T00:46:01;10.13;;;9.23;;
7398;SDS011;3740;50.700;7.184;2023-05-23T00:48:27;10.07;;;9.18;;
7398;SDS011;3740;50.700;7.184;2023-05-23T00:50:53;9.30;;;8.48;;
7398;SDS011;3740;50.700;7.184;2023-05-23T00:53:20;9.73;;;8.93;;
7398;SDS011;3740;50.700;7.184;2023-05-23T00:55:46;9.45;;;8.65;;
7398;SDS011;3740;50.700;7.184;2023-05-23T00:58:12;9.65;;;8.75;;
7398;SDS011;3740;50.700;7.184;2023-05-23T01:00:40;9.20;;;8.43;;
7398;SDS011;3740;50.700;7.184;2023-05-23T01:03:06;9.63;;;8.93;;
7398;SDS011;3740;50.700;7.184;2023-05-23T01:05:32;9.35;;;8.55;;
7398;SDS011;3740;50.700;7.184;2023-05-23T01:07:57;9.35;;;8.55;;
7398;SDS011;3740;50.700;7.184;2023-05-23T01:10:27;9.68;;;8.88;;
7398;SDS011;3740;50.700;7.184;2023-05-23T01:18:30;9.30;;;8.52;;
7398;SDS011;3740;50.700;7.184;2023-05-23T01:21:09;9.63;;;8.82;;
7398;SDS011;3740;50.700;7.184;2023-05-23T01:29:24;12.43;;;11.32;;
7398;SDS011;3740;50.700;7.184;2023-05-23T01:31:56;11.77;;;10.70;;
7398;SDS011;3740;50.700;7.184;2023-05-23T01:34:23;10.45;;;9.50;;
7398;SDS011;3740;50.700;7.184;2023-05-23T01:36:51;10.68;;;9.77;;
7398;SDS011;3740;50.700;7.184;2023-05-23T01:39:19;12.68;;;11.48;;
7398;SDS011;3740;50.700;7.184;2023-05-23T01:41:45;12.30;;;11.20;;
7398;SDS011;3740;50.700;7.184;2023-05-23T01:44:12;11.07;;;10.05;;
7398;SDS011;3740;50.700;7.184;2023-05-23T01:46:38;11.40;;;10.40;;
7398;SDS011;3740;50.700;7.184;2023-05-23T01:49:04;12.55;;;11.45;;
7398;SDS011;3740;50.700;7.184;2023-05-23T01:51:33;11.35;;;10.45;;
7398;SDS011;3740;50.700;7.184;2023-05-23T01:53:58;13.25;;;12.10;;
7398;SDS011;3740;50.700;7.184;2023-05-23T01:56:25;12.82;;;11.77;;
7398;SDS011;3740;50.700;7.184;2023-05-23T01:58:52;13.77;;;12.48;;
7398;SDS011;3740;50.700;7.184;2023-05-23T02:01:18;12.18;;;11.10;;
7398;SDS011;3740;50.700;7.184;2023-05-23T02:03:45;10.90;;;9.90;;
7398;SDS011;3740;50.700;7.184;2023-05-23T02:06:10;11.63;;;10.52;;
7398;SDS011;3740;50.700;7.184;2023-05-23T02:08:36;10.23;;;9.32;;
7398;SDS011;3740;50.700;7.184;2023-05-23T02:11:02;10.45;;;9.45;;
7398;SDS011;3740;50.700;7.184;2023-05-23T02:13:28;10.00;;;9.20;;
7398;SDS011;3740;50.700;7.184;2023-05-23T02:15:53;9.60;;;8.80;;
7398;SDS011;3740;50.700;7.184;2023-05-23T02:18:19;10.32;;;9.32;;
7398;SDS011;3740;50.700;7.184;2023-05-23T02:20:45;12.63;;;11.52;;
7398;SDS011;3740;50.700;7.184;2023-05-23T02:23:11;12.00;;;10.80;;
7398;SDS011;3740;50.700;7.184;2023-05-23T02:25:36;15.68;;;14.20;;
7398;SDS011;3740;50.700;7.184;2023-05-23T02:28:02;15.00;;;13.60;;
7398;SDS011;3740;50.700;7.184;2023-05-23T02:30:27;15.07;;;13.68;;
7398;SDS011;3740;50.700;7.184;2023-05-23T02:32:53;16.15;;;14.60;;
7398;SDS011;3740;50.700;7.184;2023-05-23T02:35:19;16.27;;;14.88;;
7398;SDS011;3740;50.700;7.184;2023-05-23T02:37:44;15.07;;;13.65;;
7398;SDS011;3740;50.700;7.184;2023-05-23T02:40:10;15.73;;;14.25;;
7398;SDS011;3740;50.700;7.184;2023-05-23T02:42:36;14.30;;;13.00;;
7398;SDS011;3740;50.700;7.184;2023-05-23T02:45:01;13.57;;;12.38;;
7398;SDS011;3740;50.700;7.184;2023-05-23T02:47:27;12.90;;;11.80;;
7398;SDS011;3740;50.700;7.184;2023-05-23T02:49:53;10.50;;;9.63;;
7398;SDS011;3740;50.700;7.184;2023-05-23T02:52:18;8.57;;;7.67;;
7398;SDS011;3740;50.700;7.184;2023-05-23T02:54:44;7.40;;;6.70;;
7398;SDS011;3740;50.700;7.184;2023-05-23T02:57:10;6.85;;;6.28;;
7398;SDS011;3740;50.700;7.184;2023-05-23T02:59:35;6.80;;;6.20;;
7398;SDS011;3740;50.700;7.184;2023-05-23T03:02:01;5.80;;;5.30;;
7398;SDS011;3740;50.700;7.184;2023-05-23T03:04:27;5.55;;;5.05;;
7398;SDS011;3740;50.700;7.184;2023-05-23T03:06:53;5.15;;;4.65;;
7398;SDS011;3740;50.700;7.184;2023-05-23T03:09:19;5.38;;;4.93;;
7398;SDS011;3740;50.700;7.184;2023-05-23T03:11:45;5.40;;;4.90;;
7398;SDS011;3740;50.700;7.184;2023-05-23T03:14:10;5.10;;;4.60;;
7398;SDS011;3740;50.700;7.184;2023-05-23T03:16:36;5.15;;;4.70;;
7398;SDS011;3740;50.700;7.184;2023-05-23T03:19:02;5.05;;;4.55;;
7398;SDS011;3740;50.700;7.184;2023-05-23T03:21:28;5.03;;;4.63;;
7398;SDS011;3740;50.700;7.184;2023-05-23T03:23:55;5.40;;;4.90;;
7398;SDS011;3740;50.700;7.184;2023-05-23T03:26:21;4.57;;;4.17;;
7398;SDS011;3740;50.700;7.184;2023-05-23T03:28:47;5.57;;;4.97;;
7398;SDS011;3740;50.700;7.184;2023-05-23T03:31:13;5.40;;;4.97;;
7398;SDS011;3740;50.700;7.184;2023-05-23T03:33:39;4.80;;;4.40;;
7398;SDS011;3740;50.700;7.184;2023-05-23T03:36:05;5.80;;;5.07;;
7398;SDS011;3740;50.700;7.184;2023-05-23T03:38:30;5.23;;;4.80;;
7398;SDS011;3740;50.700;7.184;2023-05-23T03:40:56;5.03;;;4.63;;
7398;SDS011;3740;50.700;7.184;2023-05-23T03:43:21;4.97;;;4.57;;
7398;SDS011;3740;50.700;7.184;2023-05-23T03:45:47;4.47;;;4.07;;
7398;SDS011;3740;50.700;7.184;2023-05-23T03:48:13;4.70;;;4.30;;
7398;SDS011;3740;50.700;7.184;2023-05-23T03:50:38;5.93;;;5.33;;
7398;SDS011;3740;50.700;7.184;2023-05-23T03:53:04;5.47;;;4.73;;
7398;SDS011;3740;50.700;7.184;2023-05-23T03:55:30;5.63;;;5.13;;
7398;SDS011;3740;50.700;7.184;2023-05-23T03:57:56;4.90;;;4.40;;
7398;SDS011;3740;50.700;7.184;2023-05-23T04:00:21;5.18;;;4.78;;
7398;SDS011;3740;50.700;7.184;2023-05-23T04:02:47;7.03;;;6.22;;
7398;SDS011;3740;50.700;7.184;2023-05-23T04:05:14;6.07;;;5.47;;
7398;SDS011;3740;50.700;7.184;2023-05-23T04:07:40;6.83;;;6.33;;
7398;SDS011;3740;50.700;7.184;2023-05-23T04:10:06;6.77;;;6.23;;
7398;SDS011;3740;50.700;7.184;2023-05-23T04:12:32;9.07;;;8.17;;
7398;SDS011;3740;50.700;7.184;2023-05-23T04:14:58;7.57;;;6.97;;
7398;SDS011;3740;50.700;7.184;2023-05-23T04:17:24;8.20;;;7.50;;
7398;SDS011;3740;50.700;7.184;2023-05-23T04:19:50;8.20;;;7.50;;
7398;SDS011;3740;50.700;7.184;2023-05-23T04:22:16;8.88;;;8.18;;
7398;SDS011;3740;50.700;7.184;2023-05-23T04:24:41;9.52;;;8.70;;
7398;SDS011;3740;50.700;7.184;2023-05-23T04:27:08;11.20;;;10.02;;
7398;SDS011;3740;50.700;7.184;2023-05-23T04:29:33;10.43;;;9.40;;
7398;SDS011;3740;50.700;7.184;2023-05-23T04:32:00;11.70;;;10.50;;
7398;SDS011;3740;50.700;7.184;2023-05-23T04:34:26;11.30;;;10.20;;
7398;SDS011;3740;50.700;7.184;2023-05-23T04:36:52;11.40;;;10.37;;
7398;SDS011;3740;50.700;7.184;2023-05-23T04:39:18;12.43;;;11.27;;
7398;SDS011;3740;50.700;7.184;2023-05-23T04:41:44;12.00;;;10.90;;
7398;SDS011;3740;50.700;7.184;2023-05-23T04:44:10;12.10;;;11.00;;
7398;SDS011;3740;50.700;7.184;2023-05-23T04:46:36;11.17;;;10.27;;
7398;SDS011;3740;50.700;7.184;2023-05-23T04:49:05;11.33;;;10.40;;
7398;SDS011;3740;50.700;7.184;2023-05-23T04:51:31;11.93;;;10.93;;
7398;SDS011;3740;50.700;7.184;2023-05-23T04:53:57;12.43;;;11.37;;
7398;SDS011;3740;50.700;7.184;2023-05-23T04:56:23;12.13;;;10.93;;
7398;SDS011;3740;50.700;7.184;2023-05-23T04:58:52;12.70;;;11.50;;
7398;SDS011;3740;50.700;7.184;2023-05-23T05:01:17;11.73;;;10.70;;
7398;SDS011;3740;50.700;7.184;2023-05-23T05:03:43;11.03;;;10.03;;
7398;SDS011;3740;50.700;7.184;2023-05-23T05:06:09;10.37;;;9.37;;
7398;SDS011;3740;50.700;7.184;2023-05-23T05:08:34;10.63;;;9.73;;
7398;SDS011;3740;50.700;7.184;2023-05-23T05:11:00;11.73;;;10.73;;
7398;SDS011;3740;50.700;7.184;2023-05-23T05:13:26;11.47;;;10.47;;
7398;SDS011;3740;50.700;7.184;2023-05-23T05:15:52;10.40;;;9.50;;
7398;SDS011;3740;50.700;7.184;2023-05-23T05:18:17;9.97;;;8.97;;
7398;SDS011;3740;50.700;7.184;2023-05-23T05:20:43;10.20;;;9.30;;
7398;SDS011;3740;50.700;7.184;2023-05-23T05:23:08;9.43;;;8.63;;
7398;SDS011;3740;50.700;7.184;2023-05-23T05:25:34;10.13;;;9.23;;
7398;SDS011;3740;50.700;7.184;2023-05-23T05:28:02;9.83;;;9.00;;
7398;SDS011;3740;50.700;7.184;2023-05-23T05:30:30;10.10;;;9.10;;
7398;SDS011;3740;50.700;7.184;2023-05-23T05:32:59;11.83;;;10.73;;
7398;SDS011;3740;50.700;7.184;2023-05-23T05:35:26;9.27;;;8.47;;
7398;SDS011;3740;50.700;7.184;2023-05-23T05:37:51;11.18;;;9.98;;
7398;SDS011;3740;50.700;7.184;2023-05-23T05:40:17;10.33;;;9.27;;
7398;SDS011;3740;50.700;7.184;2023-05-23T05:42:42;11.00;;;10.00;;
7398;SDS011;3740;50.700;7.184;2023-05-23T05:45:08;11.60;;;10.40;;
7398;SDS011;3740;50.700;7.184;2023-05-23T05:47:35;12.43;;;11.27;;
7398;SDS011;3740;50.700;7.184;2023-05-23T05:50:03;12.67;;;11.43;;
7398;SDS011;3740;50.700;7.184;2023-05-23T05:52:34;12.48;;;11.38;;
7398;SDS011;3740;50.700;7.184;2023-05-23T05:55:07;12.97;;;11.67;;
7398;SDS011;3740;50.700;7.184;2023-05-23T05:57:40;12.00;;;10.80;;
7398;SDS011;3740;50.700;7.184;2023-05-23T06:00:06;11.47;;;10.37;;
7398;SDS011;3740;50.700;7.184;2023-05-23T06:02:37;13.03;;;11.80;;
7398;SDS011;3740;50.700;7.184;2023-05-23T06:05:03;13.03;;;11.07;;
7398;SDS011;3740;50.700;7.184;2023-05-23T06:07:32;12.43;;;11.13;;
7398;SDS011;3740;50.700;7.184;2023-05-23T06:09:58;11.37;;;10.27;;
7398;SDS011;3740;50.700;7.184;2023-05-23T06:12:23;12.37;;;11.10;;
7398;SDS011;3740;50.700;7.184;2023-05-23T06:14:49;10.67;;;9.57;;
7398;SDS011;3740;50.700;7.184;2023-05-23T06:17:14;10.90;;;9.90;;
7398;SDS011;3740;50.700;7.184;2023-05-23T06:19:40;10.60;;;9.50;;
7398;SDS011;3740;50.700;7.184;2023-05-23T06:22:05;11.50;;;10.30;;
7398;SDS011;3740;50.700;7.184;2023-05-23T06:24:31;10.37;;;9.37;;
7398;SDS011;3740;50.700;7.184;2023-05-23T06:26:56;11.40;;;10.40;;
7398;SDS011;3740;50.700;7.184;2023-05-23T06:29:22;11.75;;;10.55;;
7398;SDS011;3740;50.700;7.184;2023-05-23T06:31:48;12.30;;;11.10;;
7398;SDS011;3740;50.700;7.184;2023-05-23T06:34:13;10.77;;;9.67;;
7398;SDS011;3740;50.700;7.184;2023-05-23T06:36:40;11.25;;;10.15;;
7398;SDS011;3740;50.700;7.184;2023-05-23T06:39:06;12.83;;;11.57;;
7398;SDS011;3740;50.700;7.184;2023-05-23T06:41:34;17.03;;;15.23;;
7398;SDS011;3740;50.700;7.184;2023-05-23T06:44:00;11.23;;;10.20;;
7398;SDS011;3740;50.700;7.184;2023-05-23T06:46:25;11.73;;;10.67;;
7398;SDS011;3740;50.700;7.184;2023-05-23T06:48:51;11.52;;;10.43;;
7398;SDS011;3740;50.700;7.184;2023-05-23T06:51:16;11.87;;;10.83;;
7398;SDS011;3740;50.700;7.184;2023-05-23T06:53:42;11.48;;;10.38;;
7398;SDS011;3740;50.700;7.184;2023-05-23T06:56:08;11.30;;;10.20;;
7398;SDS011;3740;50.700;7.184;2023-05-23T06:58:33;13.07;;;11.83;;
7398;SDS011;3740;50.700;7.184;2023-05-23T07:00:59;13.47;;;12.17;;
7398;SDS011;3740;50.700;7.184;2023-05-23T07:03:25;14.40;;;12.27;;
7398;SDS011;3740;50.700;7.184;2023-05-23T07:05:51;14.53;;;13.20;;
7398;SDS011;3740;50.700;7.184;2023-05-23T07:08:16;13.48;;;12.30;;
7398;SDS011;3740;50.700;7.184;2023-05-23T07:10:42;14.38;;;13.13;;
7398;SDS011;3740;50.700;7.184;2023-05-23T07:13:07;13.82;;;12.63;;
7398;SDS011;3740;50.700;7.184;2023-05-23T07:15:33;14.50;;;13.00;;
7398;SDS011;3740;50.700;7.184;2023-05-23T07:17:58;14.73;;;13.50;;
7398;SDS011;3740;50.700;7.184;2023-05-23T07:20:24;15.50;;;13.97;;
7398;SDS011;3740;50.700;7.184;2023-05-23T07:22:50;17.17;;;15.77;;
7398;SDS011;3740;50.700;7.184;2023-05-23T07:25:15;16.17;;;14.47;;
7398;SDS011;3740;50.700;7.184;2023-05-23T07:27:41;16.63;;;14.93;;
7398;SDS011;3740;50.700;7.184;2023-05-23T07:30:07;14.67;;;13.00;;
7398;SDS011;3740;50.700;7.184;2023-05-23T07:32:34;14.50;;;13.10;;
7398;SDS011;3740;50.700;7.184;2023-05-23T07:35:00;13.47;;;12.17;;
7398;SDS011;3740;50.700;7.184;2023-05-23T07:37:25;13.83;;;12.43;;
7398;SDS011;3740;50.700;7.184;2023-05-23T07:39:51;12.67;;;11.47;;
7398;SDS011;3740;50.700;7.184;2023-05-23T07:42:17;13.90;;;12.40;;
7398;SDS011;3740;50.700;7.184;2023-05-23T07:44:43;12.97;;;11.67;;
7398;SDS011;3740;50.700;7.184;2023-05-23T07:47:08;11.90;;;10.70;;
7398;SDS011;3740;50.700;7.184;2023-05-23T07:49:34;12.40;;;11.10;;
7398;SDS011;3740;50.700;7.184;2023-05-23T07:52:00;11.33;;;10.13;;
7398;SDS011;3740;50.700;7.184;2023-05-23T07:54:25;12.73;;;11.23;;
7398;SDS011;3740;50.700;7.184;2023-05-23T07:56:54;13.13;;;11.90;;
7398;SDS011;3740;50.700;7.184;2023-05-23T07:59:19;10.50;;;9.50;;
7398;SDS011;3740;50.700;7.184;2023-05-23T08:01:46;10.77;;;9.67;;
7398;SDS011;3740;50.700;7.184;2023-05-23T08:04:14;11.90;;;10.43;;
7398;SDS011;3740;50.700;7.184;2023-05-23T08:06:40;11.23;;;10.10;;
7398;SDS011;3740;50.700;7.184;2023-05-23T08:09:06;10.93;;;9.90;;
7398;SDS011;3740;50.700;7.184;2023-05-23T08:11:31;10.52;;;9.63;;
7398;SDS011;3740;50.700;7.184;2023-05-23T08:13:57;14.35;;;9.10;;
7398;SDS011;3740;50.700;7.184;2023-05-23T08:16:23;11.52;;;9.88;;
7398;SDS011;3740;50.700;7.184;2023-05-23T08:18:50;9.77;;;8.87;;
7398;SDS011;3740;50.700;7.184;2023-05-23T08:21:16;10.38;;;9.25;;
7398;SDS011;3740;50.700;7.184;2023-05-23T08:23:41;11.00;;;10.00;;
7398;SDS011;3740;50.700;7.184;2023-05-23T08:26:07;9.52;;;8.38;;
7398;SDS011;3740;50.700;7.184;2023-05-23T08:28:32;10.23;;;9.23;;
7398;SDS011;3740;50.700;7.184;2023-05-23T08:30:58;9.80;;;8.80;;
7398;SDS011;3740;50.700;7.184;2023-05-23T08:33:25;10.87;;;8.87;;
7398;SDS011;3740;50.700;7.184;2023-05-23T08:35:50;9.18;;;8.25;;
7398;SDS011;3740;50.700;7.184;2023-05-23T08:38:16;11.43;;;9.20;;
7398;SDS011;3740;50.700;7.184;2023-05-23T08:40:42;9.63;;;8.27;;
7398;SDS011;3740;50.700;7.184;2023-05-23T08:43:15;8.77;;;7.87;;
7398;SDS011;3740;50.700;7.184;2023-05-23T08:45:41;9.00;;;8.18;;
7398;SDS011;3740;50.700;7.184;2023-05-23T08:48:07;9.37;;;8.27;;
7398;SDS011;3740;50.700;7.184;2023-05-23T08:50:37;9.65;;;8.25;;
7398;SDS011;3740;50.700;7.184;2023-05-23T08:53:04;9.50;;;8.45;;
7398;SDS011;3740;50.700;7.184;2023-05-23T08:55:32;12.23;;;10.93;;
7398;SDS011;3740;50.700;7.184;2023-05-23T08:57:59;11.23;;;10.23;;
7398;SDS011;3740;50.700;7.184;2023-05-23T09:00:25;9.53;;;8.73;;
7398;SDS011;3740;50.700;7.184;2023-05-23T09:02:51;11.10;;;9.93;;
7398;SDS011;3740;50.700;7.184;2023-05-23T09:05:18;11.33;;;9.17;;
7398;SDS011;3740;50.700;7.184;2023-05-23T09:07:45;13.30;;;9.13;;
7398;SDS011;3740;50.700;7.184;2023-05-23T09:10:15;8.90;;;8.00;;
7398;SDS011;3740;50.700;7.184;2023-05-23T09:12:41;9.57;;;8.57;;
7398;SDS011;3740;50.700;7.184;2023-05-23T09:15:07;8.70;;;7.80;;
7398;SDS011;3740;50.700;7.184;2023-05-23T09:17:34;9.20;;;8.30;;
7398;SDS011;3740;50.700;7.184;2023-05-23T09:20:01;9.50;;;8.48;;
7398;SDS011;3740;50.700;7.184;2023-05-23T09:22:28;9.65;;;8.38;;
7398;SDS011;3740;50.700;7.184;2023-05-23T09:24:54;9.53;;;8.57;;
7398;SDS011;3740;50.700;7.184;2023-05-23T09:27:21;8.63;;;7.82;;
7398;SDS011;3740;50.700;7.184;2023-05-23T09:29:50;8.63;;;7.78;;
7398;SDS011;3740;50.700;7.184;2023-05-23T09:32:16;9.18;;;8.20;;
7398;SDS011;3740;50.700;7.184;2023-05-23T09:37:15;9.38;;;8.15;;
7398;SDS011;3740;50.700;7.184;2023-05-23T09:39:46;10.50;;;8.38;;
7398;SDS011;3740;50.700;7.184;2023-05-23T09:42:17;8.30;;;7.40;;
7398;SDS011;3740;50.700;7.184;2023-05-23T09:44:46;8.48;;;7.68;;
7398;SDS011;3740;50.700;7.184;2023-05-23T09:47:14;10.07;;;9.05;;
7398;SDS011;3740;50.700;7.184;2023-05-23T09:49:40;14.20;;;10.80;;
7398;SDS011;3740;50.700;7.184;2023-05-23T09:52:07;11.13;;;9.75;;
7398;SDS011;3740;50.700;7.184;2023-05-23T09:54:33;14.35;;;11.23;;
7398;SDS011;3740;50.700;7.184;2023-05-23T09:56:59;11.68;;;10.55;;
7398;SDS011;3740;50.700;7.184;2023-05-23T09:59:27;13.70;;;10.33;;
7398;SDS011;3740;50.700;7.184;2023-05-23T10:01:55;12.57;;;10.37;;
7398;SDS011;3740;50.700;7.184;2023-05-23T10:04:21;12.33;;;10.17;;
7398;SDS011;3740;50.700;7.184;2023-05-23T10:06:53;11.63;;;10.00;;
7398;SDS011;3740;50.700;7.184;2023-05-23T10:09:24;12.13;;;9.60;;
7398;SDS011;3740;50.700;7.184;2023-05-23T10:14:51;15.43;;;10.10;;
7398;SDS011;3740;50.700;7.184;2023-05-23T10:17:24;13.37;;;10.60;;
7398;SDS011;3740;50.700;7.184;2023-05-23T10:20:03;9.67;;;8.77;;
7398;SDS011;3740;50.700;7.184;2023-05-23T10:22:41;13.10;;;9.60;;
7398;SDS011;3740;50.700;7.184;2023-05-23T10:25:07;10.60;;;8.57;;
7398;SDS011;3740;50.700;7.184;2023-05-23T10:27:34;11.43;;;10.27;;
7398;SDS011;3740;50.700;7.184;2023-05-23T10:30:01;15.30;;;10.40;;
7398;SDS011;3740;50.700;7.184;2023-05-23T10:32:28;12.43;;;11.23;;
7398;SDS011;3740;50.700;7.184;2023-05-23T10:37:38;13.30;;;10.20;;
7398;SDS011;3740;50.700;7.184;2023-05-23T10:42:48;14.63;;;10.20;;
7398;SDS011;3740;50.700;7.184;2023-05-23T10:45:20;14.13;;;11.27;;
7398;SDS011;3740;50.700;7.184;2023-05-23T10:47:48;14.30;;;12.57;;
7398;SDS011;3740;50.700;7.184;2023-05-23T10:50:33;15.03;;;13.43;;
7398;SDS011;3740;50.700;7.184;2023-05-23T10:53:01;18.87;;;17.17;;
7398;SDS011;3740;50.700;7.184;2023-05-23T10:55:31;22.83;;;20.63;;
7398;SDS011;3740;50.700;7.184;2023-05-23T10:58:17;29.47;;;26.57;;
7398;SDS011;3740;50.700;7.184;2023-05-23T11:00:51;31.93;;;28.87;;
7398;SDS011;3740;50.700;7.184;2023-05-23T11:03:28;33.27;;;30.17;;
7398;SDS011;3740;50.700;7.184;2023-05-23T11:05:57;31.58;;;28.75;;
7398;SDS011;3740;50.700;7.184;2023-05-23T11:08:23;30.10;;;27.40;;
7398;SDS011;3740;50.700;7.184;2023-05-23T11:13:24;27.58;;;25.08;;
7398;SDS011;3740;50.700;7.184;2023-05-23T11:16:26;25.00;;;22.33;;
7398;SDS011;3740;50.700;7.184;2023-05-23T11:21:56;20.80;;;18.83;;
7398;SDS011;3740;50.700;7.184;2023-05-23T11:24:27;18.92;;;16.77;;
7398;SDS011;3740;50.700;7.184;2023-05-23T11:27:16;16.98;;;15.35;;
7398;SDS011;3740;50.700;7.184;2023-05-23T11:30:10;17.55;;;15.95;;
7398;SDS011;3740;50.700;7.184;2023-05-23T11:32:39;15.45;;;13.82;;
7398;SDS011;3740;50.700;7.184;2023-05-23T11:35:06;16.73;;;15.18;;
7398;SDS011;3740;50.700;7.184;2023-05-23T11:37:33;16.65;;;15.15;;
7398;SDS011;3740;50.700;7.184;2023-05-23T11:40:23;17.45;;;15.85;;
7398;SDS011;3740;50.700;7.184;2023-05-23T11:43:13;16.50;;;15.00;;
7398;SDS011;3740;50.700;7.184;2023-05-23T11:45:39;16.65;;;15.07;;
7398;SDS011;3740;50.700;7.184;2023-05-23T11:48:12;16.40;;;14.65;;
7398;SDS011;3740;50.700;7.184;2023-05-23T11:50:47;16.08;;;14.07;;
7398;SDS011;3740;50.700;7.184;2023-05-23T11:53:15;16.75;;;15.15;;
7398;SDS011;3740;50.700;7.184;2023-05-23T11:55:49;14.95;;;13.45;;
7398;SDS011;3740;50.700;7.184;2023-05-23T11:58:24;14.27;;;12.95;;
7398;SDS011;3740;50.700;7.184;2023-05-23T12:00:51;13.25;;;12.00;;
7398;SDS011;3740;50.700;7.184;2023-05-23T12:03:22;13.32;;;10.98;;
7398;SDS011;3740;50.700;7.184;2023-05-23T12:05:47;12.05;;;9.70;;
7398;SDS011;3740;50.700;7.184;2023-05-23T12:08:13;14.32;;;10.75;;
7398;SDS011;3740;50.700;7.184;2023-05-23T12:10:47;12.57;;;11.27;;
7398;SDS011;3740;50.700;7.184;2023-05-23T12:13:15;12.82;;;11.55;;
7398;SDS011;3740;50.700;7.184;2023-05-23T12:15:40;18.80;;;15.68;;
7398;SDS011;3740;50.700;7.184;2023-05-23T12:18:06;19.20;;;17.40;;
7398;SDS011;3740;50.700;7.184;2023-05-23T12:20:32;19.85;;;18.20;;
7398;SDS011;3740;50.700;7.184;2023-05-23T12:23:03;20.50;;;18.50;;
7398;SDS011;3740;50.700;7.184;2023-05-23T12:25:36;18.03;;;16.23;;
7398;SDS011;3740;50.700;7.184;2023-05-23T12:28:04;16.95;;;15.25;;
7398;SDS011;3740;50.700;7.184;2023-05-23T12:30:39;15.65;;;14.07;;
7398;SDS011;3740;50.700;7.184;2023-05-23T12:33:06;12.25;;;11.18;;
7398;SDS011;3740;50.700;7.184;2023-05-23T12:35:32;19.00;;;17.23;;
7398;SDS011;3740;50.700;7.184;2023-05-23T12:37:58;19.10;;;17.40;;
7398;SDS011;3740;50.700;7.184;2023-05-23T12:40:24;20.63;;;18.60;;
7398;SDS011;3740;50.700;7.184;2023-05-23T12:42:55;22.38;;;19.88;;
7398;SDS011;3740;50.700;7.184;2023-05-23T12:45:22;19.13;;;17.25;;
7398;SDS011;3740;50.700;7.184;2023-05-23T12:47:57;21.15;;;19.08;;
7398;SDS011;3740;50.700;7.184;2023-05-23T12:50:24;20.25;;;18.00;;
7398;SDS011;3740;50.700;7.184;2023-05-23T12:52:50;18.98;;;17.35;;
7398;SDS011;3740;50.700;7.184;2023-05-23T12:55:16;19.33;;;17.63;;
7398;SDS011;3740;50.700;7.184;2023-05-23T12:57:41;19.08;;;17.25;;
7398;SDS011;3740;50.700;7.184;2023-05-23T13:00:08;20.50;;;16.30;;
7398;SDS011;3740;50.700;7.184;2023-05-23T13:02:34;18.75;;;16.95;;
7398;SDS011;3740;50.700;7.184;2023-05-23T13:05:00;19.45;;;17.65;;
7398;SDS011;3740;50.700;7.184;2023-05-23T13:07:25;18.20;;;16.58;;
7398;SDS011;3740;50.700;7.184;2023-05-23T13:09:51;18.77;;;17.17;;
7398;SDS011;3740;50.700;7.184;2023-05-23T13:12:16;17.90;;;16.30;;
7398;SDS011;3740;50.700;7.184;2023-05-23T13:14:42;18.00;;;16.50;;
7398;SDS011;3740;50.700;7.184;2023-05-23T13:17:07;18.35;;;16.80;;
7398;SDS011;3740;50.700;7.184;2023-05-23T13:19:33;17.98;;;16.50;;
7398;SDS011;3740;50.700;7.184;2023-05-23T13:21:59;17.02;;;15.52;;
7398;SDS011;3740;50.700;7.184;2023-05-23T13:24:25;18.25;;;16.70;;
7398;SDS011;3740;50.700;7.184;2023-05-23T13:26:51;20.30;;;18.35;;
7398;SDS011;3740;50.700;7.184;2023-05-23T13:29:17;18.08;;;16.42;;
7398;SDS011;3740;50.700;7.184;2023-05-23T13:31:42;18.73;;;17.08;;
7398;SDS011;3740;50.700;7.184;2023-05-23T13:34:08;19.10;;;17.25;;
7398;SDS011;3740;50.700;7.184;2023-05-23T13:36:34;20.00;;;18.17;;
7398;SDS011;3740;50.700;7.184;2023-05-23T13:39:00;17.95;;;16.27;;
7398;SDS011;3740;50.700;7.184;2023-05-23T13:41:25;15.48;;;14.07;;
7398;SDS011;3740;50.700;7.184;2023-05-23T13:43:51;17.70;;;16.00;;
7398;SDS011;3740;50.700;7.184;2023-05-23T13:46:17;15.77;;;14.20;;
7398;SDS011;3740;50.700;7.184;2023-05-23T13:48:42;15.20;;;13.70;;
7398;SDS011;3740;50.700;7.184;2023-05-23T13:51:08;17.88;;;16.27;;
7398;SDS011;3740;50.700;7.184;2023-05-23T13:53:33;17.85;;;16.25;;
7398;SDS011;3740;50.700;7.184;2023-05-23T13:55:59;16.67;;;15.27;;
7398;SDS011;3740;50.700;7.184;2023-05-23T13:58:25;18.65;;;16.85;;
7398;SDS011;3740;50.700;7.184;2023-05-23T14:00:51;14.98;;;13.70;;
7398;SDS011;3740;50.700;7.184;2023-05-23T14:03:17;13.25;;;12.05;;
7398;SDS011;3740;50.700;7.184;2023-05-23T14:05:43;15.70;;;14.15;;
7398;SDS011;3740;50.700;7.184;2023-05-23T14:08:09;15.20;;;13.88;;
7398;SDS011;3740;50.700;7.184;2023-05-23T14:10:35;15.65;;;14.18;;
7398;SDS011;3740;50.700;7.184;2023-05-23T14:13:01;16.00;;;14.60;;
7398;SDS011;3740;50.700;7.184;2023-05-23T14:15:26;16.92;;;15.52;;
7398;SDS011;3740;50.700;7.184;2023-05-23T14:17:52;16.50;;;15.10;;
7398;SDS011;3740;50.700;7.184;2023-05-23T14:20:20;16.05;;;14.68;;
7398;SDS011;3740;50.700;7.184;2023-05-23T14:22:46;15.15;;;13.80;;
7398;SDS011;3740;50.700;7.184;2023-05-23T14:25:13;14.38;;;13.10;;
7398;SDS011;3740;50.700;7.184;2023-05-23T14:27:39;12.73;;;11.68;;
7398;SDS011;3740;50.700;7.184;2023-05-23T14:30:05;12.45;;;11.43;;
7398;SDS011;3740;50.700;7.184;2023-05-23T14:32:31;11.82;;;10.82;;
7398;SDS011;3740;50.700;7.184;2023-05-23T14:35:02;13.15;;;11.95;;
7398;SDS011;3740;50.700;7.184;2023-05-23T14:37:32;12.13;;;11.02;;
7398;SDS011;3740;50.700;7.184;2023-05-23T14:39:57;12.02;;;11.02;;
7398;SDS011;3740;50.700;7.184;2023-05-23T14:42:23;11.95;;;10.95;;
7398;SDS011;3740;50.700;7.184;2023-05-23T14:44:48;10.13;;;9.13;;
7398;SDS011;3740;50.700;7.184;2023-05-23T14:47:14;9.50;;;8.55;;
7398;SDS011;3740;50.700;7.184;2023-05-23T14:49:39;10.40;;;9.40;;
7398;SDS011;3740;50.700;7.184;2023-05-23T14:52:05;9.40;;;8.60;;
7398;SDS011;3740;50.700;7.184;2023-05-23T14:54:30;12.05;;;10.77;;
7398;SDS011;3740;50.700;7.184;2023-05-23T14:56:56;11.10;;;10.05;;
7398;SDS011;3740;50.700;7.184;2023-05-23T14:59:22;12.93;;;11.55;;
7398;SDS011;3740;50.700;7.184;2023-05-23T15:01:47;9.95;;;9.07;;
7398;SDS011;3740;50.700;7.184;2023-05-23T15:04:13;11.38;;;10.38;;
7398;SDS011;3740;50.700;7.184;2023-05-23T15:06:38;11.40;;;10.38;;
7398;SDS011;3740;50.700;7.184;2023-05-23T15:09:04;11.40;;;10.27;;
7398;SDS011;3740;50.700;7.184;2023-05-23T15:11:30;11.15;;;9.88;;
7398;SDS011;3740;50.700;7.184;2023-05-23T15:13:56;11.05;;;9.23;;
7398;SDS011;3740;50.700;7.184;2023-05-23T15:16:22;9.73;;;8.75;;
7398;SDS011;3740;50.700;7.184;2023-05-23T15:18:47;9.63;;;8.63;;
7398;SDS011;3740;50.700;7.184;2023-05-23T15:21:13;10.75;;;8.70;;
7398;SDS011;3740;50.700;7.184;2023-05-23T15:23:38;9.35;;;8.45;;